Terminal Aerodrome Forecast
Issued by NWS Billings, MT

Home | Current Version | Previous Version | Graphics & Text | Print | Product List | Glossary On
Versions: 1 2 3 4 5 6 7 8 9 10 11 12 13 14 15 16 17 18 19 20 21 22 23
654
FTUS45 KBYZ 050527
TAFMLS
TAF
KMLS 050527Z 0506/0606 16007KT P6SM FEW200
     FM051200 18006KT P6SM SCT150
     FM051800 22007KT P6SM SCT150=

USA.gov is the U.S. government's official web portal to all federal, state and local government web resources and services.